Time;durP1;ratioP1;P1;durP2;ratioP2;P2;SDS_P1;SDS_P2;PMS_P1;PMS_P2;Temp;Humidity;BMP_temperature;BMP_pressure;BME280_temperature;BME280_humidity;BME280_pressure;Samples;Min_cycle;Max_cycle;Signal;HPM_P1;HPM_P2
2023/03/29 00:00:28;;;;;;;12.25;4.53;;;;;;;8.79;78.24;99749.53;4989682;28;20053;-44
2023/03/29 00:02:55;;;;;;;10.88;4.13;;;;;;;8.82;78.32;99744.38;4986292;28;20132;-45
2023/03/29 00:05:24;;;;;;;11.75;3.50;;;;;;;8.84;78.19;99752.97;4992418;28;20073;-45
2023/03/29 00:07:53;;;;;;;5.35;2.85;;;;;;;8.82;78.47;99744.38;4988530;28;20049;-46
2023/03/29 00:10:22;;;;;;;8.40;4.00;;;;;;;8.85;78.29;99746.97;4991420;28;20064;-46
2023/03/29 00:12:51;;;;;;;8.07;3.70;;;;;;;8.84;77.95;99740.06;4984403;28;20097;-47
2023/03/29 00:15:18;;;;;;;9.68;4.00;;;;;;;8.86;78.56;99746.09;4992466;28;20056;-45
2023/03/29 00:17:45;;;;;;;6.50;2.78;;;;;;;8.84;78.70;99743.50;4986582;28;20054;-47
2023/03/29 00:20:12;;;;;;;6.13;2.90;;;;;;;8.89;78.54;99751.25;4991514;28;20496;-44
2023/03/29 00:22:40;;;;;;;11.65;4.28;;;;;;;8.89;78.39;99751.25;4990809;28;20410;-45
2023/03/29 00:25:09;;;;;;;10.30;3.80;;;;;;;8.90;78.75;99740.06;4994579;28;20084;-46
2023/03/29 00:27:36;;;;;;;9.07;4.03;;;;;;;8.92;78.55;99750.41;4988679;28;20054;-44
2023/03/29 00:30:06;;;;;;;8.63;3.70;;;;;;;8.93;78.52;99747.81;4983221;28;20129;-45
2023/03/29 00:32:33;;;;;;;9.07;3.38;;;;;;;8.92;79.23;99742.66;4977157;28;20066;-45
2023/03/29 00:35:00;;;;;;;8.63;3.53;;;;;;;8.94;79.35;99744.38;4974505;28;20046;-44
2023/03/29 00:37:28;;;;;;;12.10;4.63;;;;;;;8.98;78.60;99735.75;4964622;28;20435;-45
2023/03/29 00:39:56;;;;;;;8.25;3.67;;;;;;;8.99;78.40;99734.88;4971548;28;20047;-45
2023/03/29 00:42:24;;;;;;;9.75;4.25;;;;;;;9.02;78.74;99735.75;4971891;28;20051;-45
2023/03/29 00:50:28;;;;;;;12.55;5.45;;;;;;;9.22;79.15;99718.47;5059472;27;20386;-44
2023/03/29 00:55:38;;;;;;;12.98;3.83;;;;;;;9.15;78.54;99713.34;5077413;27;20810;-45
2023/03/29 00:58:08;;;;;;;9.65;3.80;;;;;;;9.17;78.54;99715.06;5040458;28;20049;-46
2023/03/29 01:00:43;;;;;;;12.70;4.75;;;;;;;9.16;78.51;99708.16;5077219;28;20093;-46
2023/03/29 01:03:13;;;;;;;9.02;3.58;;;;;;;9.13;78.97;99710.75;5045605;28;20053;-45
2023/03/29 01:05:44;;;;;;;10.80;3.58;;;;;;;9.13;78.52;99708.16;5070531;28;20136;-44
2023/03/29 01:08:17;;;;;;;7.88;3.13;;;;;;;9.11;78.78;99702.13;5045914;28;20053;-44
2023/03/29 01:10:52;;;;;;;10.25;4.05;;;;;;;9.11;78.55;99704.72;5037322;28;20049;-44
2023/03/29 01:13:30;;;;;;;11.52;3.70;;;;;;;9.12;78.64;99701.28;5042973;28;20091;-45
2023/03/29 01:15:58;;;;;;;10.32;4.20;;;;;;;9.10;78.69;99703.00;5052622;28;20049;-44
2023/03/29 01:18:24;;;;;;;11.40;3.88;;;;;;;9.10;78.20;99697.84;5044359;28;20044;-45
2023/03/29 01:21:08;;;;;;;9.20;4.20;;;;;;;9.06;78.72;99690.97;5036035;28;20609;-44
2023/03/29 01:26:59;;;;;;;10.50;4.32;;;;;;;8.96;78.30;99709.06;5035010;27;20412;-44
2023/03/29 01:29:32;;;;;;;10.70;4.82;;;;;;;8.94;78.42;99692.69;4999372;28;20705;-44
2023/03/29 01:32:07;;;;;;;15.20;5.35;;;;;;;8.93;78.31;99696.16;4994976;28;20803;-44
2023/03/29 01:34:43;;;;;;;12.52;5.45;;;;;;;8.90;78.44;99711.66;4998866;28;20046;-44
2023/03/29 01:37:23;;;;;;;11.82;5.38;;;;;;;8.88;78.07;99703.03;4994717;28;20058;-45
2023/03/29 01:39:51;;;;;;;11.55;4.47;;;;;;;8.86;78.80;99707.34;5006303;28;20051;-46
2023/03/29 01:48:13;;;;;;;12.02;6.55;;;;;;;8.78;78.15;99707.34;5059616;27;20409;-45
2023/03/29 01:50:47;;;;;;;14.25;7.07;;;;;;;8.80;78.63;99707.34;5056611;28;20049;-44
2023/03/29 01:53:25;;;;;;;12.55;4.38;;;;;;;8.79;78.66;99703.06;5052312;28;20140;-48
2023/03/29 01:55:56;;;;;;;13.52;4.93;;;;;;;8.78;78.79;99693.59;5049739;28;20065;-46
2023/03/29 01:58:27;;;;;;;16.02;5.07;;;;;;;8.80;78.68;99689.28;5049332;28;20772;-45
2023/03/29 02:00:56;;;;;;;13.00;4.90;;;;;;;8.82;78.09;99690.97;5073693;28;20057;-46
2023/03/29 02:03:26;;;;;;;12.93;5.13;;;;;;;8.83;78.30;99684.09;5071723;28;20060;-45
2023/03/29 02:05:55;;;;;;;12.73;4.35;;;;;;;8.85;78.17;99682.41;5072023;28;20044;-46
2023/03/29 02:08:23;;;;;;;17.25;7.00;;;;;;;8.87;78.04;99670.31;5075671;28;20051;-45
2023/03/29 02:10:51;;;;;;;15.38;4.55;;;;;;;8.87;78.62;99665.16;5071944;28;20048;-45
2023/03/29 02:13:18;;;;;;;12.13;4.78;;;;;;;8.89;78.16;99665.16;5074486;28;20493;-44
2023/03/29 02:15:46;;;;;;;15.60;6.07;;;;;;;8.89;78.27;99673.78;5077048;28;20048;-44
2023/03/29 02:18:16;;;;;;;15.43;5.53;;;;;;;8.89;78.09;99666.03;5076162;28;20111;-44
2023/03/29 02:20:47;;;;;;;13.30;5.07;;;;;;;8.89;78.10;99655.69;5074793;28;20044;-45
2023/03/29 02:25:55;;;;;;;16.88;5.75;;;;;;;8.87;77.95;99658.28;5023559;28;20893;-45
2023/03/29 02:28:23;;;;;;;19.42;6.07;;;;;;;8.89;78.47;99653.13;4961030;28;20764;-44
2023/03/29 02:36:17;;;;;;;16.83;4.85;;;;;;;8.92;78.08;99657.41;5029091;28;20402;-44
2023/03/29 02:38:43;;;;;;;13.27;3.72;;;;;;;8.93;78.16;99656.53;5003384;28;20046;-44
2023/03/29 02:41:11;;;;;;;15.38;4.53;;;;;;;8.92;78.76;99663.41;4997861;28;20046;-46
2023/03/29 02:43:40;;;;;;;8.93;4.32;;;;;;;8.92;79.06;99660.00;5000802;28;20418;-44
2023/03/29 02:46:07;;;;;;;10.45;3.70;;;;;;;8.91;78.62;99661.69;5001760;28;20078;-45
2023/03/29 02:48:36;;;;;;;8.52;2.92;;;;;;;8.88;79.06;99656.53;5002830;28;20064;-45
2023/03/29 02:51:12;;;;;;;8.55;2.95;;;;;;;8.87;79.13;99660.88;4999530;28;20058;-45
2023/03/29 02:53:44;;;;;;;11.00;3.30;;;;;;;8.88;79.21;99656.53;4996125;28;20334;-44
2023/03/29 02:56:12;;;;;;;12.52;4.03;;;;;;;8.89;79.72;99657.41;4996637;28;20054;-44
2023/03/29 02:58:39;;;;;;;7.63;2.90;;;;;;;8.89;79.53;99658.28;4998550;28;20465;-45
2023/03/29 03:01:08;;;;;;;6.80;2.72;;;;;;;8.88;79.83;99666.88;5001710;28;20129;-45
2023/03/29 03:03:35;;;;;;;8.73;3.60;;;;;;;8.90;79.71;99660.00;4998151;28;20037;-46
2023/03/29 03:06:02;;;;;;;9.73;3.72;;;;;;;8.92;79.30;99658.25;4999130;28;20615;-45
2023/03/29 03:08:28;;;;;;;10.77;3.42;;;;;;;8.92;79.44;99665.16;5005591;28;20663;-46
2023/03/29 03:10:55;;;;;;;10.13;3.55;;;;;;;8.91;80.53;99666.03;5004468;28;20455;-45
2023/03/29 03:13:22;;;;;;;9.77;3.47;;;;;;;8.92;79.68;99660.84;5005732;28;20534;-45
2023/03/29 03:15:49;;;;;;;14.05;4.90;;;;;;;8.93;79.59;99654.81;5003640;28;20042;-44
2023/03/29 03:18:16;;;;;;;8.43;3.40;;;;;;;8.94;79.79;99653.09;5001190;28;20144;-46
2023/03/29 03:20:45;;;;;;;12.68;4.22;;;;;;;8.95;79.75;99642.75;5001098;28;20081;-45
2023/03/29 03:23:13;;;;;;;12.27;3.83;;;;;;;8.94;80.20;99635.00;5005720;28;20054;-44
2023/03/29 03:25:39;;;;;;;13.02;3.60;;;;;;;8.96;79.69;99641.91;5002614;28;20071;-46
2023/03/29 03:28:06;;;;;;;13.98;3.67;;;;;;;8.98;79.67;99637.59;5002033;28;20498;-45
2023/03/29 03:30:33;;;;;;;12.68;3.50;;;;;;;8.98;79.51;99632.41;5005541;28;20046;-45
2023/03/29 03:33:00;;;;;;;10.48;3.42;;;;;;;8.97;80.45;99629.84;5003354;28;20108;-45
2023/03/29 03:35:26;;;;;;;8.77;3.63;;;;;;;8.97;80.00;99629.84;5006124;28;20050;-45
2023/03/29 03:37:53;;;;;;;11.20;4.10;;;;;;;8.98;80.21;99628.97;5004064;28;20121;-45
2023/03/29 03:40:20;;;;;;;16.50;4.97;;;;;;;8.97;80.07;99622.97;5005393;28;20096;-44
2023/03/29 03:42:47;;;;;;;12.90;3.90;;;;;;;8.98;79.75;99622.09;5004928;28;20046;-45
2023/03/29 03:45:14;;;;;;;10.18;3.70;;;;;;;8.99;79.45;99618.63;5007001;28;20072;-45
2023/03/29 03:47:41;;;;;;;11.68;3.58;;;;;;;8.99;79.25;99613.47;4986903;28;20047;-44
2023/03/29 03:50:08;;;;;;;14.98;4.38;;;;;;;8.99;79.59;99607.47;4989641;28;20054;-45
2023/03/29 03:52:35;;;;;;;13.45;4.82;;;;;;;8.97;79.66;99599.72;4996617;28;20054;-45
2023/03/29 03:55:01;;;;;;;10.73;4.35;;;;;;;8.96;79.59;99603.16;4994528;28;20058;-48
2023/03/29 03:57:28;;;;;;;12.00;4.22;;;;;;;8.95;79.63;99593.69;4989549;28;20572;-45
2023/03/29 03:59:55;;;;;;;13.25;4.28;;;;;;;8.94;79.75;99591.09;4984836;28;20076;-45
2023/03/29 04:02:22;;;;;;;10.88;3.88;;;;;;;8.91;79.43;99581.63;4985506;28;20123;-45
2023/03/29 04:04:48;;;;;;;11.90;3.63;;;;;;;8.91;80.52;99584.22;4984900;28;20050;-43
2023/03/29 04:07:16;;;;;;;10.05;3.72;;;;;;;8.89;79.29;99588.56;4984775;28;20053;-47
2023/03/29 04:09:43;;;;;;;12.82;3.13;;;;;;;8.88;79.24;99589.38;4987298;28;20113;-46
2023/03/29 04:12:10;;;;;;;11.43;4.22;;;;;;;8.88;79.37;99591.97;4983297;28;20061;-46
2023/03/29 04:14:37;;;;;;;15.82;4.82;;;;;;;8.87;79.76;99587.69;4983936;28;20679;-45
2023/03/29 04:17:04;;;;;;;12.43;4.22;;;;;;;8.80;80.12;99575.66;4981183;28;20049;-45
2023/03/29 04:19:31;;;;;;;7.18;2.70;;;;;;;8.77;80.39;99565.31;4992758;28;20046;-44
2023/03/29 04:21:58;;;;;;;10.25;3.72;;;;;;;8.74;79.26;99567.06;4994390;28;20078;-44
2023/03/29 04:24:24;;;;;;;10.30;3.97;;;;;;;8.71;79.59;99574.81;4987191;28;20081;-45
2023/03/29 04:26:51;;;;;;;10.48;3.80;;;;;;;8.70;79.36;99582.56;4994011;28;20078;-44
2023/03/29 04:29:17;;;;;;;14.75;4.20;;;;;;;8.68;79.87;99579.97;4985477;28;20054;-44
2023/03/29 04:31:44;;;;;;;10.18;3.83;;;;;;;8.66;79.72;99573.09;4997780;28;20450;-44
2023/03/29 04:34:11;;;;;;;11.20;3.72;;;;;;;8.64;79.79;99565.34;4992712;28;20078;-45
2023/03/29 04:36:37;;;;;;;8.60;3.55;;;;;;;8.62;79.42;99561.94;4988746;28;20078;-45
2023/03/29 04:39:06;;;;;;;10.90;3.60;;;;;;;8.60;79.62;99561.94;4988871;28;20140;-46
2023/03/29 04:41:33;;;;;;;10.85;3.72;;;;;;;8.59;79.09;99559.38;4995258;28;20054;-44
2023/03/29 04:44:02;;;;;;;9.25;3.50;;;;;;;8.55;79.79;99557.66;4989251;28;20050;-43
2023/03/29 04:46:29;;;;;;;10.52;3.33;;;;;;;8.48;79.34;99549.88;4978243;28;20054;-45
2023/03/29 04:48:56;;;;;;;7.72;2.75;;;;;;;8.46;79.84;99550.75;4987635;28;20134;-44
2023/03/29 04:51:23;;;;;;;9.15;3.30;;;;;;;8.46;79.72;99551.63;4993183;28;20100;-44
2023/03/29 04:53:50;;;;;;;15.57;3.80;;;;;;;8.45;78.87;99555.03;4984467;28;20046;-46
2023/03/29 04:56:16;;;;;;;9.13;2.45;;;;;;;8.45;80.18;99539.56;4987437;28;20120;-44
2023/03/29 04:58:43;;;;;;;8.27;2.83;;;;;;;8.46;79.71;99548.16;4988215;28;20049;-46
2023/03/29 05:01:10;;;;;;;8.55;2.80;;;;;;;8.46;79.76;99551.63;4982740;28;20060;-46
2023/03/29 05:03:37;;;;;;;11.45;3.25;;;;;;;8.46;80.75;99549.03;4986514;28;20109;-44
2023/03/29 05:06:05;;;;;;;11.40;3.55;;;;;;;8.47;80.31;99555.91;4986794;28;20086;-44
2023/03/29 05:08:37;;;;;;;11.70;3.53;;;;;;;8.46;80.52;99551.63;4982007;28;20142;-44
2023/03/29 05:11:09;;;;;;;11.10;3.60;;;;;;;8.47;80.03;99568.81;4984392;28;20052;-45
2023/03/29 05:13:36;;;;;;;14.38;3.72;;;;;;;8.47;80.04;99558.50;4980734;28;20142;-46
2023/03/29 05:16:03;;;;;;;10.82;4.28;;;;;;;8.47;80.61;99563.66;4981977;28;20086;-48
2023/03/29 05:18:30;;;;;;;11.73;3.33;;;;;;;8.46;79.78;99567.09;4980558;28;20073;-45
2023/03/29 05:20:58;;;;;;;9.63;3.28;;;;;;;8.45;80.53;99575.69;4977239;28;20042;-45
2023/03/29 05:23:25;;;;;;;9.10;3.10;;;;;;;8.44;80.41;99573.13;4975496;28;20069;-44
2023/03/29 05:25:52;;;;;;;9.68;3.30;;;;;;;8.44;80.56;99575.72;4980210;28;20166;-45
2023/03/29 05:28:20;;;;;;;12.18;3.45;;;;;;;8.44;80.06;99573.97;4982001;28;20054;-44
2023/03/29 05:30:58;;;;;;;10.93;3.17;;;;;;;8.43;80.51;99567.09;4983699;28;20478;-44
2023/03/29 05:33:25;;;;;;;9.63;3.33;;;;;;;8.48;80.13;99569.69;4984946;28;20044;-44
2023/03/29 05:36:00;;;;;;;9.23;3.15;;;;;;;8.48;80.00;99572.28;4985902;28;20077;-45
2023/03/29 05:38:28;;;;;;;10.20;3.00;;;;;;;8.51;80.59;99573.97;4987526;28;20046;-47
2023/03/29 05:40:55;;;;;;;8.25;2.30;;;;;;;8.51;80.57;99566.22;4991980;28;20470;-48
2023/03/29 05:43:22;;;;;;;9.10;2.90;;;;;;;8.55;80.44;99565.41;4981667;28;20050;-45
2023/03/29 05:45:50;;;;;;;8.60;2.35;;;;;;;8.56;80.72;99557.66;5002841;28;20461;-45
2023/03/29 05:48:17;;;;;;;7.00;2.58;;;;;;;8.57;80.76;99558.50;4975281;28;20050;-43
2023/03/29 05:50:47;;;;;;;7.55;2.92;;;;;;;8.57;80.90;99553.34;4985121;28;20062;-44
2023/03/29 05:53:15;;;;;;;11.00;3.20;;;;;;;8.58;80.77;99540.41;4987595;28;20517;-45
2023/03/29 05:55:42;;;;;;;10.90;3.25;;;;;;;8.58;80.43;99544.75;4996781;28;20101;-44
2023/03/29 05:58:11;;;;;;;10.13;2.85;;;;;;;8.60;80.61;99543.00;4988008;28;20054;-44
2023/03/29 06:00:39;;;;;;;12.73;3.60;;;;;;;8.62;80.75;99538.72;4987057;28;20705;-45
2023/03/29 06:03:07;;;;;;;12.48;3.97;;;;;;;8.64;80.24;99543.88;4988660;28;20073;-45
2023/03/29 06:05:48;;;;;;;12.32;3.50;;;;;;;8.66;81.03;99548.16;4987887;28;20072;-45
2023/03/29 06:08:15;;;;;;;10.40;3.38;;;;;;;8.66;80.61;99543.00;4992420;28;20140;-46
2023/03/29 06:10:42;;;;;;;14.05;3.63;;;;;;;8.68;81.09;99543.84;4992875;28;20050;-44
2023/03/29 06:13:09;;;;;;;14.70;3.67;;;;;;;8.71;81.16;99546.41;4991358;28;20133;-44
2023/03/29 06:15:36;;;;;;;11.32;3.83;;;;;;;8.73;80.15;99538.66;4993628;28;20042;-45
2023/03/29 06:18:03;;;;;;;10.10;3.60;;;;;;;8.74;80.89;99549.00;4981920;28;20141;-44
2023/03/29 06:20:30;;;;;;;9.98;4.40;;;;;;;8.79;81.09;99532.63;4984394;28;20072;-45
2023/03/29 06:22:57;;;;;;;11.77;3.60;;;;;;;8.83;80.39;99537.78;4985155;28;20046;-44
2023/03/29 06:25:24;;;;;;;13.43;3.58;;;;;;;8.90;80.34;99548.06;4984896;28;20470;-44
2023/03/29 06:27:51;;;;;;;9.63;3.13;;;;;;;8.96;80.49;99559.25;4984559;28;20054;-46
2023/03/29 06:30:18;;;;;;;9.35;2.83;;;;;;;9.03;80.66;99556.63;4980874;28;20046;-45
2023/03/29 06:32:45;;;;;;;11.65;3.22;;;;;;;9.09;80.58;99554.03;4980631;28;20160;-44
2023/03/29 06:35:11;;;;;;;14.10;3.85;;;;;;;9.13;80.44;99559.16;4981530;28;20538;-44
2023/03/29 06:37:40;;;;;;;11.43;3.67;;;;;;;9.19;80.51;99563.44;4983849;28;20088;-43
2023/03/29 06:40:08;;;;;;;10.75;3.03;;;;;;;9.23;80.83;99575.47;4984173;28;20061;-46
2023/03/29 06:42:35;;;;;;;12.93;3.30;;;;;;;9.25;80.68;99568.59;4983564;28;20054;-46
2023/03/29 06:45:03;;;;;;;12.38;3.33;;;;;;;9.30;81.03;99558.22;4985202;28;20634;-45
2023/03/29 06:47:30;;;;;;;8.95;3.00;;;;;;;9.35;80.24;99563.34;4978968;28;20050;-44
2023/03/29 06:49:57;;;;;;;9.43;2.95;;;;;;;9.40;80.84;99566.78;4984305;28;20080;-45
2023/03/29 06:52:23;;;;;;;11.20;2.72;;;;;;;9.46;80.83;99556.41;4985052;28;20081;-44
2023/03/29 06:54:50;;;;;;;12.13;3.10;;;;;;;9.60;80.46;99552.88;4984437;28;20071;-46
2023/03/29 06:57:17;;;;;;;7.75;3.25;;;;;;;9.76;80.18;99574.31;4978348;28;20414;-45
2023/03/29 06:59:44;;;;;;;15.73;3.35;;;;;;;9.91;80.51;99568.19;4978821;28;20042;-45
2023/03/29 07:02:11;;;;;;;12.50;3.88;;;;;;;9.99;79.98;99556.03;4977191;28;20137;-45
2023/03/29 07:04:40;;;;;;;11.57;3.88;;;;;;;10.05;80.20;99554.25;4982244;28;20085;-44
2023/03/29 07:07:18;;;;;;;10.82;2.95;;;;;;;10.09;79.79;99545.59;4983682;28;20129;-45
2023/03/29 07:09:52;;;;;;;11.13;3.72;;;;;;;10.16;79.94;99550.72;4985543;28;20062;-45
2023/03/29 07:12:21;;;;;;;12.02;3.40;;;;;;;10.25;79.65;99547.19;4982467;28;20054;-45
2023/03/29 07:14:48;;;;;;;16.48;4.82;;;;;;;10.36;80.28;99546.22;4984085;28;20459;-45
2023/03/29 07:17:15;;;;;;;13.18;3.50;;;;;;;10.43;80.16;99539.25;4983199;28;20097;-44
2023/03/29 07:19:42;;;;;;;8.68;2.95;;;;;;;10.45;79.54;99538.41;4979569;28;20073;-44
2023/03/29 07:22:08;;;;;;;8.48;1.92;;;;;;;10.47;79.66;99534.03;4982958;28;20573;-46
2023/03/29 07:24:35;;;;;;;7.95;2.22;;;;;;;10.47;79.72;99531.44;4986661;28;20073;-44
2023/03/29 07:27:02;;;;;;;5.30;2.20;;;;;;;10.47;79.35;99536.63;4987321;28;20619;-46
2023/03/29 07:29:31;;;;;;;8.15;2.30;;;;;;;10.48;79.31;99540.97;4983123;28;20046;-46
2023/03/29 07:31:57;;;;;;;7.13;2.33;;;;;;;10.50;79.70;99536.59;4987609;28;20042;-47
2023/03/29 07:34:24;;;;;;;11.35;2.28;;;;;;;10.52;79.72;99531.41;4982465;28;20439;-46
2023/03/29 07:36:51;;;;;;;7.85;1.85;;;;;;;10.56;79.25;99534.81;4988354;28;20050;-46
2023/03/29 07:39:18;;;;;;;8.63;2.95;;;;;;;10.59;79.71;99522.72;4983200;28;20081;-45
2023/03/29 07:41:44;;;;;;;6.80;2.17;;;;;;;10.64;79.68;99517.47;4989580;28;20050;-46
2023/03/29 07:44:11;;;;;;;8.75;2.17;;;;;;;10.67;78.81;99507.94;4991976;28;20076;-46
2023/03/29 07:46:38;;;;;;;13.63;2.80;;;;;;;10.76;78.92;99504.38;4981918;28;20105;-46
2023/03/29 07:49:06;;;;;;;8.40;2.45;;;;;;;10.91;79.23;99492.13;4985642;28;20086;-46
2023/03/29 07:51:33;;;;;;;4.75;2.38;;;;;;;11.08;78.56;99481.50;4986914;28;20787;-47
2023/03/29 07:53:59;;;;;;;6.82;2.10;;;;;;;11.22;78.83;99494.28;4985103;28;20043;-46
2023/03/29 07:56:26;;;;;;;6.53;2.85;;;;;;;11.42;78.20;99496.56;4979258;28;20062;-45
2023/03/29 07:58:52;;;;;;;7.20;2.53;;;;;;;11.90;77.18;99507.06;5001787;28;20414;-46
2023/03/29 08:01:19;;;;;;;6.82;2.33;;;;;;;12.13;77.20;99504.09;4996818;28;20074;-48
2023/03/29 08:03:46;;;;;;;5.60;2.22;;;;;;;12.11;76.98;99511.06;4985540;28;20107;-46
2023/03/29 08:06:15;;;;;;;8.57;2.35;;;;;;;12.03;75.61;99498.16;4996065;28;20137;-47
2023/03/29 08:08:41;;;;;;;10.15;2.60;;;;;;;11.90;77.07;99496.69;5002559;28;20080;-46
2023/03/29 08:11:09;;;;;;;4.32;1.42;;;;;;;11.86;76.55;99495.91;4992753;28;20105;-46
2023/03/29 08:13:36;;;;;;;7.88;2.47;;;;;;;11.85;75.88;99495.91;4996621;28;20054;-46
2023/03/29 08:16:04;;;;;;;5.55;1.92;;;;;;;11.73;77.04;99490.06;4989543;28;20045;-46
2023/03/29 08:18:31;;;;;;;8.43;3.35;;;;;;;11.68;76.77;99489.25;4994625;28;20042;-50
2023/03/29 08:21:00;;;;;;;7.47;2.45;;;;;;;11.63;77.67;99488.47;4982500;28;20794;-46
2023/03/29 08:23:27;;;;;;;9.18;2.58;;;;;;;11.56;77.86;99491.16;4987101;28;20046;-48
2023/03/29 08:25:54;;;;;;;6.05;2.47;;;;;;;11.52;76.69;99476.53;4994193;28;20050;-46
2023/03/29 08:28:21;;;;;;;5.72;1.75;;;;;;;11.47;76.91;99488.72;4993477;28;20056;-46
2023/03/29 08:30:48;;;;;;;8.13;2.05;;;;;;;11.47;76.84;99478.34;4992591;28;20297;-45
2023/03/29 08:33:15;;;;;;;6.30;1.90;;;;;;;11.44;77.05;99483.56;4994056;28;20060;-45
2023/03/29 08:35:42;;;;;;;8.93;2.05;;;;;;;11.47;77.43;99478.34;4987314;28;20053;-48
2023/03/29 08:38:10;;;;;;;3.35;1.00;;;;;;;11.48;77.18;99474.88;4992889;28;20410;-45
2023/03/29 08:40:36;;;;;;;5.38;1.63;;;;;;;11.52;77.45;99463.56;4988751;28;20054;-46
2023/03/29 08:46:15;;;;;;;9.63;3.13;;;;;;;12.04;77.50;99458.38;5012389;27;20416;-47
2023/03/29 08:48:48;;;;;;;5.18;2.40;;;;;;;12.03;77.59;99451.44;5027435;28;20736;-45
2023/03/29 08:51:39;;;;;;;9.32;2.38;;;;;;;11.91;76.48;99436.13;5001148;28;20413;-46
2023/03/29 08:54:14;;;;;;;8.48;3.08;;;;;;;11.86;78.05;99432.75;5001363;28;20046;-46
2023/03/29 08:56:43;;;;;;;6.18;2.95;;;;;;;11.90;77.08;99429.22;4999111;28;20347;-46
2023/03/29 08:59:19;;;;;;;5.90;2.40;;;;;;;11.97;77.73;99425.63;5000795;28;20148;-45
2023/03/29 09:01:49;;;;;;;3.92;2.80;;;;;;;11.98;76.88;99422.16;5003368;28;20070;-45
2023/03/29 09:04:21;;;;;;;8.63;3.92;;;;;;;11.98;76.88;99418.69;5001860;28;20046;-46
2023/03/29 09:06:48;;;;;;;6.72;2.88;;;;;;;11.91;77.71;99411.03;5002453;28;20050;-47
2023/03/29 09:09:19;;;;;;;4.90;1.48;;;;;;;11.83;77.45;99408.56;4999949;28;20049;-48
2023/03/29 09:23:21;;;;;;;7.05;1.20;;;;;;;11.50;77.95;99379.75;5048756;28;20970;-46
2023/03/29 09:31:21;;;;;;;4.93;1.52;;;;;;;11.34;79.26;99375.72;5062637;27;20604;-47
2023/03/29 09:33:56;;;;;;;5.43;1.10;;;;;;;11.41;79.30;99382.50;5029490;28;20055;-46
2023/03/29 09:39:12;;;;;;;4.40;3.03;;;;;;;11.43;79.19;99378.16;5069251;27;20438;-47
2023/03/29 09:41:46;;;;;;;5.90;3.13;;;;;;;11.41;79.59;99377.31;5055195;28;20048;-49
2023/03/29 09:44:19;;;;;;;5.10;3.03;;;;;;;11.37;79.66;99375.66;5051674;28;20408;-48
2023/03/29 09:47:06;;;;;;;7.03;3.53;;;;;;;11.36;80.02;99377.41;5054837;28;20083;-47
2023/03/29 09:49:38;;;;;;;5.25;2.03;;;;;;;11.40;79.66;99373.00;5047011;28;20451;-45
2023/03/29 09:52:11;;;;;;;6.65;2.97;;;;;;;11.41;80.60;99369.53;5044979;28;20049;-45
2023/03/29 09:54:39;;;;;;;6.20;2.95;;;;;;;11.45;80.08;99358.22;5067240;28;20098;-46
2023/03/29 09:57:08;;;;;;;4.43;2.83;;;;;;;11.39;80.54;99366.13;5070095;28;20086;-46
2023/03/29 09:59:35;;;;;;;4.45;2.88;;;;;;;11.44;80.16;99370.34;5064503;28;20045;-46
2023/03/29 10:02:08;;;;;;;6.47;3.83;;;;;;;11.44;80.23;99375.53;5068778;28;20049;-44
2023/03/29 10:04:35;;;;;;;7.60;3.42;;;;;;;11.41;80.75;99374.72;5071103;28;20067;-45
2023/03/29 10:07:03;;;;;;;7.75;3.17;;;;;;;11.50;80.96;99379.75;5071282;28;20095;-46
2023/03/29 10:09:31;;;;;;;6.55;3.08;;;;;;;11.53;80.53;99364.16;5071471;28;20151;-46
2023/03/29 10:12:02;;;;;;;4.32;2.97;;;;;;;11.56;80.56;99363.25;5071844;28;20508;-45
2023/03/29 10:17:18;;;;;;;4.53;1.70;;;;;;;11.60;81.69;99359.72;5038131;28;20406;-45
2023/03/29 10:19:49;;;;;;;2.50;1.27;;;;;;;11.71;81.41;99356.91;4992526;28;20054;-47
2023/03/29 10:22:21;;;;;;;4.55;1.35;;;;;;;11.74;82.09;99338.69;4979213;28;20111;-46
2023/03/29 10:24:50;;;;;;;4.93;1.77;;;;;;;11.78;81.71;99345.53;4987946;28;20049;-45
2023/03/29 10:27:27;;;;;;;4.60;1.50;;;;;;;11.81;81.00;99337.69;4986166;28;20618;-47
2023/03/29 10:29:57;;;;;;;3.35;1.10;;;;;;;11.81;81.71;99342.88;4983683;28;20085;-45
2023/03/29 10:32:34;;;;;;;5.05;1.95;;;;;;;11.78;82.40;99327.38;4980887;28;20470;-45
2023/03/29 10:37:49;;;;;;;4.03;2.10;;;;;;;11.78;81.50;99305.75;5033949;27;20754;-47
2023/03/29 10:40:24;;;;;;;3.90;1.30;;;;;;;11.77;81.73;99310.09;5012948;28;20075;-49
2023/03/29 10:42:52;;;;;;;3.97;1.58;;;;;;;11.76;82.79;99300.59;5022513;28;20081;-45
2023/03/29 10:45:24;;;;;;;2.83;0.93;;;;;;;11.75;82.72;99301.47;5022282;28;20129;-47
2023/03/29 10:47:54;;;;;;;3.92;1.65;;;;;;;11.80;83.08;99291.88;5014893;28;20046;-44
2023/03/29 10:50:21;;;;;;;3.85;1.45;;;;;;;11.83;82.41;99284.03;5022670;28;20561;-45
2023/03/29 10:52:49;;;;;;;3.65;2.25;;;;;;;11.85;82.40;99276.19;5022878;28;20049;-44
2023/03/29 10:55:16;;;;;;;2.50;1.48;;;;;;;11.85;82.79;99273.63;5009577;28;20069;-45
2023/03/29 10:57:55;;;;;;;2.38;1.65;;;;;;;11.87;82.10;99279.63;5015280;28;20042;-48
2023/03/29 11:00:31;;;;;;;4.15;1.65;;;;;;;11.86;82.63;99266.69;5022364;28;20542;-44
2023/03/29 11:27:03;;;;;;;4.20;1.42;;;;;;;11.89;82.49;99241.53;5077800;27;20903;-46
2023/03/29 11:29:43;;;;;;;3.45;1.83;;;;;;;11.87;82.53;99234.66;5056911;28;20064;-47
2023/03/29 11:42:47;;;;;;;2.20;0.88;;;;;;;11.89;83.91;99219.94;5070020;27;20373;-46
2023/03/29 11:45:23;;;;;;;1.55;0.82;;;;;;;11.97;83.00;99215.44;5004001;28;20494;-44
2023/03/29 11:47:53;;;;;;;1.60;0.82;;;;;;;11.97;84.42;99202.44;5018123;28;20095;-45
2023/03/29 11:50:30;;;;;;;2.25;1.65;;;;;;;11.96;83.40;99213.72;5021319;28;20568;-45
2023/03/29 11:53:07;;;;;;;1.48;1.00;;;;;;;11.98;83.36;99204.16;5020664;28;20140;-45
2023/03/29 11:55:38;;;;;;;3.17;1.33;;;;;;;11.93;84.16;99198.22;5012070;28;20058;-46
2023/03/29 12:00:54;;;;;;;2.78;1.50;;;;;;;11.98;83.54;99200.69;4996886;27;20415;-47
2023/03/29 12:04:00;;;;;;;4.15;1.17;;;;;;;11.99;84.65;99203.25;5002278;28;20042;-46
2023/03/29 12:11:53;;;;;;;2.95;1.65;;;;;;;12.22;83.81;99196.72;5075419;27;20403;-46
2023/03/29 12:14:26;;;;;;;3.92;1.70;;;;;;;12.32;84.64;99193.03;5056600;28;20044;-46
2023/03/29 12:17:00;;;;;;;1.83;1.20;;;;;;;12.43;84.48;99195.34;5067348;28;20048;-46
2023/03/29 12:19:33;;;;;;;3.15;1.73;;;;;;;12.54;83.03;99189.91;5076747;28;20053;-47
2023/03/29 12:22:06;;;;;;;2.40;1.27;;;;;;;12.63;83.59;99190.59;5056433;28;20094;-47
2023/03/29 12:24:35;;;;;;;3.45;1.58;;;;;;;12.74;84.20;99193.75;5063529;28;20043;-49
2023/03/29 12:29:54;;;;;;;5.03;2.67;;;;;;;13.14;82.81;99196.19;5048469;27;20397;-46
2023/03/29 12:40:53;;;;;;;2.58;1.00;;;;;;;13.16;82.48;99178.78;5050373;27;20398;-46
2023/03/29 12:43:42;;;;;;;1.15;0.60;;;;;;;13.13;83.46;99178.91;5008455;28;20061;-47
2023/03/29 12:48:56;;;;;;;1.95;1.70;;;;;;;13.25;83.48;99155.16;5006270;28;20780;-48
2023/03/29 12:51:31;;;;;;;1.98;1.80;;;;;;;13.33;84.10;99140.19;5000750;28;20050;-48
2023/03/29 12:54:11;;;;;;;2.88;2.13;;;;;;;13.45;83.77;99148.53;5003316;28;20049;-46
2023/03/29 13:04:53;;;;;;;2.65;2.20;;;;;;;13.78;82.69;99134.59;5044233;27;20387;-47
2023/03/29 13:10:02;;;;;;;0.85;0.30;;;;;;;13.76;81.92;99116.41;5055859;27;20393;-47
2023/03/29 13:12:38;;;;;;;0.93;0.65;;;;;;;13.69;81.74;99114.91;5007171;28;20065;-46
2023/03/29 13:15:06;;;;;;;;;;;;;;;13.55;81.48;99113.59;5037264;28;20042;-46
2023/03/29 13:23:35;;;;;;;2.13;0.40;;;;;;;13.68;81.74;99134.03;5051094;28;20738;-45
2023/03/29 13:39:23;;;;;;;4.78;2.55;;;;;;;13.73;80.84;99112.16;5036760;28;20966;-47
2023/03/29 13:41:52;;;;;;;2.15;2.03;;;;;;;13.66;80.47;99105.44;5030358;28;20077;-46
2023/03/29 13:47:04;;;;;;;2.35;1.30;;;;;;;13.65;81.33;99111.56;5039407;28;20394;-46
2023/03/29 13:49:34;;;;;;;3.92;1.25;;;;;;;13.64;81.01;99116.81;5019187;28;20120;-49
2023/03/29 13:52:20;;;;;;;;;;;;;;;13.50;81.51;99115.44;5018729;28;20070;-46
2023/03/29 13:54:54;;;;;;;1.70;1.00;;;;;;;13.59;80.88;99112.59;5037147;28;19931;-48
2023/03/29 13:57:31;;;;;;;2.30;0.90;;;;;;;13.64;80.76;99112.44;5035259;28;20045;-47
2023/03/29 14:00:00;;;;;;;;;;;;;;;13.50;81.22;99112.84;5037562;28;20481;-47
2023/03/29 14:05:10;;;;;;;2.20;1.00;;;;;;;13.66;80.24;99101.97;5055816;28;20422;-49
2023/03/29 14:07:41;;;;;;;2.33;1.42;;;;;;;13.69;80.76;99099.28;5043999;28;20623;-48
2023/03/29 14:10:15;;;;;;;4.57;1.60;;;;;;;13.75;80.68;99101.72;5032554;28;20533;-46